createdAt,value
2016-01-27T00:00:10.651Z,998.72
2016-01-27T00:01:10.654Z,998.68
2016-01-27T00:02:10.656Z,998.7
2016-01-27T00:03:10.660Z,998.64
2016-01-27T00:04:10.663Z,998.63
2016-01-27T00:05:10.665Z,998.64
2016-01-27T00:06:10.652Z,998.67
2016-01-27T00:07:10.658Z,998.62
2016-01-27T00:08:10.661Z,998.59
2016-01-27T00:09:10.663Z,998.59
2016-01-27T00:10:10.680Z,998.59
2016-01-27T00:11:10.668Z,998.63
2016-01-27T00:12:10.672Z,998.65
2016-01-27T00:13:10.690Z,998.62
2016-01-27T00:14:10.662Z,998.62
2016-01-27T00:15:10.664Z,998.6
2016-01-27T00:16:10.670Z,998.59
2016-01-27T00:17:10.688Z,998.59
2016-01-27T00:18:10.676Z,998.62
2016-01-27T00:19:10.663Z,998.6
2016-01-27T00:20:10.665Z,998.66
2016-01-27T00:21:10.668Z,998.7
2016-01-27T00:22:10.670Z,998.68
2016-01-27T00:23:10.677Z,998.68
2016-01-27T00:24:10.679Z,998.66
2016-01-27T00:25:10.667Z,998.66
2016-01-27T00:26:10.670Z,998.61
2016-01-27T00:27:10.672Z,998.65
2016-01-27T00:28:10.676Z,998.65
2016-01-27T00:29:10.679Z,998.6
2016-01-27T00:30:10.681Z,998.6
2016-01-27T00:31:10.684Z,998.56
2016-01-27T00:32:10.672Z,998.57
2016-01-27T00:33:10.690Z,998.52
2016-01-27T00:34:10.677Z,998.57
2016-01-27T00:35:10.680Z,998.5
2016-01-27T00:36:10.683Z,998.5
2016-01-27T00:37:10.687Z,998.48
2016-01-27T00:38:10.689Z,998.47
2016-01-27T00:39:10.675Z,998.51
2016-01-27T00:40:10.695Z,998.45
2016-01-27T00:41:10.682Z,998.45
2016-01-27T00:42:10.685Z,998.45
2016-01-27T00:43:10.687Z,998.46
2016-01-27T00:44:10.690Z,998.42
2016-01-27T00:45:10.679Z,998.45
2016-01-27T00:46:10.696Z,998.43
2016-01-27T00:47:10.685Z,998.41
2016-01-27T00:48:10.702Z,998.41
2016-01-27T00:49:10.690Z,998.42
2016-01-27T00:50:10.691Z,998.44
2016-01-27T00:51:10.694Z,998.37
2016-01-27T00:52:10.681Z,998.39
2016-01-27T00:53:10.683Z,998.35
2016-01-27T00:54:10.689Z,998.41
2016-01-27T00:55:10.692Z,998.4
2016-01-27T00:56:10.695Z,998.39
2016-01-27T00:57:10.698Z,998.37
2016-01-27T00:58:10.700Z,998.42
2016-01-27T00:59:10.690Z,998.4
2016-01-27T01:00:10.692Z,998.34
2016-01-27T01:01:10.695Z,998.34
2016-01-27T01:02:10.698Z,998.27
2016-01-27T01:03:10.688Z,998.27
2016-01-27T01:04:10.691Z,998.26
2016-01-27T01:05:10.693Z,998.18
2016-01-27T01:06:10.713Z,998.17
2016-01-27T01:07:10.699Z,998.16
2016-01-27T01:08:10.702Z,998.18
2016-01-27T01:09:10.705Z,998.15
2016-01-27T01:10:10.693Z,998.12
2016-01-27T01:11:10.696Z,998.14
2016-01-27T01:12:10.698Z,998.07
2016-01-27T01:13:10.701Z,998.18
2016-01-27T01:14:10.704Z,998.14
2016-01-27T01:15:10.693Z,998.1
2016-01-27T01:16:10.695Z,998.1
2016-01-27T01:17:10.698Z,998.15
2016-01-27T01:18:10.701Z,998.08
2016-01-27T01:19:10.705Z,998.12
2016-01-27T01:20:10.696Z,998.09
2016-01-27T01:21:10.701Z,998.17
2016-01-27T01:22:10.704Z,998.09
2016-01-27T01:23:10.708Z,998.13
2016-01-27T01:24:10.699Z,998.15
2016-01-27T01:25:10.702Z,998.1
2016-01-27T01:26:10.704Z,998.15
2016-01-27T01:27:10.706Z,998.07
2016-01-27T01:28:10.711Z,998.09
2016-01-27T01:29:10.713Z,998.08
2016-01-27T01:30:10.716Z,998.08
2016-01-27T01:31:10.702Z,998.12
2016-01-27T01:32:10.705Z,998.17
2016-01-27T01:33:10.709Z,998.1
2016-01-27T01:34:10.711Z,998.16
2016-01-27T01:35:10.715Z,998.15
2016-01-27T01:36:10.718Z,998.17
2016-01-27T01:37:10.725Z,998.14
2016-01-27T01:38:10.711Z,998.16
2016-01-27T01:39:10.715Z,998.18
2016-01-27T01:40:10.702Z,998.17
2016-01-27T01:41:10.707Z,998.21
2016-01-27T01:42:10.710Z,998.21
2016-01-27T01:43:10.713Z,998.2
2016-01-27T01:44:10.717Z,998.21
2016-01-27T01:45:10.704Z,998.16
2016-01-27T01:46:10.708Z,998.14
2016-01-27T01:47:10.711Z,998.17
2016-01-27T01:48:10.713Z,998.12
2016-01-27T01:49:10.763Z,998.19
2016-01-27T01:50:10.720Z,998.17
2016-01-27T01:51:10.720Z,998.12
2016-01-27T01:52:10.723Z,998.17
2016-01-27T01:53:10.712Z,998.13
2016-01-27T01:54:10.731Z,998.15
2016-01-27T01:55:10.717Z,998.1
2016-01-27T01:56:10.720Z,998.11
2016-01-27T01:57:10.723Z,998.07
2016-01-27T01:58:10.725Z,998.13
2016-01-27T01:59:10.730Z,998.09
2016-01-27T02:00:10.716Z,998.09
2016-01-27T02:01:10.719Z,998.11
2016-01-27T02:02:10.723Z,998.17
2016-01-27T02:03:10.726Z,998.09
2016-01-27T02:04:10.729Z,998.12
2016-01-27T02:05:10.729Z,998.11
2016-01-27T02:06:10.724Z,998.13
2016-01-27T02:07:10.718Z,998.15
2016-01-27T02:08:10.699Z,998.15
2016-01-27T02:09:10.694Z,998.13
2016-01-27T02:10:10.690Z,998.12
2016-01-27T02:11:10.690Z,998.16
2016-01-27T02:12:10.691Z,998.14
2016-01-27T02:13:10.674Z,998.18
2016-01-27T02:14:10.674Z,998.14
2016-01-27T02:15:10.676Z,998.13
2016-01-27T02:16:10.678Z,998.14
2016-01-27T02:17:10.679Z,998.14
2016-01-27T02:18:10.680Z,998.16
2016-01-27T02:19:10.684Z,998.14
2016-01-27T02:20:10.670Z,998.19
2016-01-27T02:21:10.677Z,998.16
2016-01-27T02:22:10.680Z,998.13
2016-01-27T02:23:10.668Z,998.15
2016-01-27T02:24:10.671Z,998.15
2016-01-27T02:25:10.673Z,998.18
2016-01-27T02:26:10.676Z,998.2
2016-01-27T02:27:10.663Z,998.1
2016-01-27T02:28:10.667Z,998.19
2016-01-27T02:29:10.670Z,998.13
2016-01-27T02:30:10.703Z,998.09
2016-01-27T02:31:10.676Z,998.11
2016-01-27T02:32:10.678Z,998.11
2016-01-27T02:33:10.665Z,998.07
2016-01-27T02:34:10.668Z,998.13
2016-01-27T02:35:10.670Z,998.1
2016-01-27T02:36:10.673Z,998.11
2016-01-27T02:37:10.677Z,998.15
2016-01-27T02:38:10.665Z,998.12
2016-01-27T02:39:10.667Z,998.14
2016-01-27T02:40:10.670Z,998.08
2016-01-27T02:41:10.674Z,998.07
2016-01-27T02:42:10.677Z,998.1
2016-01-27T02:43:10.663Z,998.05
2016-01-27T02:44:10.666Z,998.12
2016-01-27T02:45:10.669Z,998.12
2016-01-27T02:46:10.673Z,998.12
2016-01-27T02:47:10.676Z,998.07
2016-01-27T02:48:10.663Z,998.11
2016-01-27T02:49:10.666Z,998.17
2016-01-27T02:50:10.661Z,998.16
2016-01-27T02:51:10.664Z,998.13
2016-01-27T02:52:10.667Z,998.19
2016-01-27T02:53:10.672Z,998.13
2016-01-27T02:54:10.659Z,998.14
2016-01-27T02:55:10.662Z,998.15
2016-01-27T02:56:10.665Z,998.21
2016-01-27T02:57:10.669Z,998.15
2016-01-27T02:58:10.671Z,998.16
2016-01-27T02:59:10.674Z,998.19
2016-01-27T03:00:10.662Z,998.14
2016-01-27T03:01:10.664Z,998.19
2016-01-27T03:02:10.672Z,998.26
2016-01-27T03:03:10.674Z,998.24
2016-01-27T03:04:10.677Z,998.26
2016-01-27T03:05:10.664Z,998.24
2016-01-27T03:06:10.668Z,998.26
2016-01-27T03:07:10.671Z,998.27
2016-01-27T03:08:10.658Z,998.28
2016-01-27T03:09:10.664Z,998.33
2016-01-27T03:10:10.667Z,998.26
2016-01-27T03:11:10.670Z,998.28
2016-01-27T03:12:10.672Z,998.25
2016-01-27T03:13:10.658Z,998.34
2016-01-27T03:14:10.662Z,998.23
2016-01-27T03:15:10.666Z,998.29
2016-01-27T03:16:10.669Z,998.28
2016-01-27T03:17:10.677Z,998.27
2016-01-27T03:18:10.666Z,998.25
2016-01-27T03:19:10.669Z,998.2
2016-01-27T03:20:10.674Z,998.2
2016-01-27T03:21:10.671Z,998.31
2016-01-27T03:22:10.673Z,998.24
2016-01-27T03:23:10.661Z,998.29
2016-01-27T03:24:10.667Z,998.29
2016-01-27T03:25:10.670Z,998.33
2016-01-27T03:26:10.673Z,998.37
2016-01-27T03:27:10.660Z,998.32
2016-01-27T03:28:10.694Z,998.31
2016-01-27T03:29:10.696Z,998.36
2016-01-27T03:30:10.715Z,998.33
2016-01-27T03:31:10.673Z,998.32
2016-01-27T03:32:10.660Z,998.27
2016-01-27T03:33:10.663Z,998.26
2016-01-27T03:34:10.681Z,998.28
2016-01-27T03:35:10.667Z,998.28
2016-01-27T03:36:10.671Z,998.25
2016-01-27T03:37:10.659Z,998.22
2016-01-27T03:38:10.677Z,998.29
2016-01-27T03:39:10.664Z,998.25
2016-01-27T03:40:10.670Z,998.31
2016-01-27T03:41:10.672Z,998.23
2016-01-27T03:42:10.675Z,998.27
2016-01-27T03:43:10.662Z,998.25
2016-01-27T03:44:10.680Z,998.2
2016-01-27T03:45:10.667Z,998.18
2016-01-27T03:46:10.670Z,998.21
2016-01-27T03:47:10.673Z,998.17
2016-01-27T03:48:10.676Z,998.2
2016-01-27T03:49:10.680Z,998.15
2016-01-27T03:50:10.667Z,998.13
2016-01-27T03:51:10.670Z,998.08
2016-01-27T03:52:10.672Z,998.07
2016-01-27T03:53:10.665Z,998.09
2016-01-27T03:54:10.668Z,998.07
2016-01-27T03:55:10.671Z,998.05
2016-01-27T03:56:10.675Z,998.06
2016-01-27T03:57:10.663Z,998.05
2016-01-27T03:58:10.667Z,998.01
2016-01-27T03:59:10.670Z,997.94
2016-01-27T04:00:10.672Z,997.97
2016-01-27T04:01:10.674Z,997.97
2016-01-27T04:02:10.679Z,997.95
2016-01-27T04:03:10.681Z,997.98
2016-01-27T04:04:10.668Z,997.93
2016-01-27T04:05:10.671Z,997.97
2016-01-27T04:06:10.674Z,997.98
2016-01-27T04:07:10.677Z,998
2016-01-27T04:08:10.695Z,998.05
2016-01-27T04:09:10.683Z,998.01
2016-01-27T04:10:10.670Z,998.02
2016-01-27T04:11:10.676Z,998.02
2016-01-27T04:12:10.678Z,998.02
2016-01-27T04:13:10.681Z,998.07
2016-01-27T04:14:10.684Z,998.05
2016-01-27T04:15:10.673Z,998.05
2016-01-27T04:16:10.692Z,998.05
2016-01-27T04:17:10.679Z,998.03
2016-01-27T04:18:10.684Z,998.02
2016-01-27T04:19:10.686Z,998.09
2016-01-27T04:20:10.689Z,998.02
2016-01-27T04:21:10.676Z,998.08
2016-01-27T04:22:10.680Z,998.05
2016-01-27T04:23:10.691Z,998.04
2016-01-27T04:24:10.680Z,998.07
2016-01-27T04:25:10.683Z,998.05
2016-01-27T04:26:10.687Z,998.04
2016-01-27T04:27:10.706Z,998
2016-01-27T04:28:10.677Z,998.02
2016-01-27T04:29:10.696Z,998.05
2016-01-27T04:30:10.683Z,998.09
2016-01-27T04:31:10.685Z,998.09
2016-01-27T04:32:10.688Z,998.11
2016-01-27T04:33:10.693Z,998.11
2016-01-27T04:34:10.696Z,998.13
2016-01-27T04:35:10.684Z,998.13
2016-01-27T04:36:10.686Z,998.14
2016-01-27T04:37:10.688Z,998.09
2016-01-27T04:38:10.691Z,998.14
2016-01-27T04:39:10.694Z,998.15
2016-01-27T04:40:10.685Z,998.07
2016-01-27T04:41:10.687Z,998.12
2016-01-27T04:42:10.690Z,998.04
2016-01-27T04:43:10.693Z,998.08
2016-01-27T04:44:10.696Z,998.08
2016-01-27T04:45:10.700Z,998.07
2016-01-27T04:46:10.702Z,998.03
2016-01-27T04:47:10.689Z,997.98
2016-01-27T04:48:10.691Z,998.01
2016-01-27T04:49:10.693Z,998
2016-01-27T04:50:10.697Z,997.99
2016-01-27T04:51:10.699Z,997.94
2016-01-27T04:52:10.704Z,997.96
2016-01-27T04:53:10.707Z,997.98
2016-01-27T04:54:10.710Z,997.92
2016-01-27T04:55:10.697Z,998
2016-01-27T04:56:10.701Z,997.97
2016-01-27T04:57:10.705Z,997.99
2016-01-27T04:58:10.707Z,997.97
2016-01-27T04:59:10.710Z,997.98
2016-01-27T05:00:10.699Z,997.99
2016-01-27T05:01:10.703Z,997.91
2016-01-27T05:02:10.705Z,997.94
2016-01-27T05:03:10.707Z,997.93
2016-01-27T05:04:10.696Z,997.91
2016-01-27T05:05:10.699Z,997.91
2016-01-27T05:06:10.702Z,997.87
2016-01-27T05:07:10.708Z,997.83
2016-01-27T05:08:10.710Z,997.87
2016-01-27T05:09:10.729Z,997.95
2016-01-27T05:10:10.715Z,997.86
2016-01-27T05:11:10.705Z,997.87
2016-01-27T05:12:10.708Z,997.94
2016-01-27T05:13:10.710Z,997.94
2016-01-27T05:14:10.713Z,997.94
2016-01-27T05:15:10.717Z,997.89
2016-01-27T05:16:10.721Z,997.96
2016-01-27T05:17:10.723Z,997.92
2016-01-27T05:18:10.711Z,997.86
2016-01-27T05:19:10.714Z,997.87
2016-01-27T05:20:10.721Z,997.87
2016-01-27T05:21:10.724Z,997.9
2016-01-27T05:22:10.716Z,997.9
2016-01-27T05:23:10.719Z,997.85
2016-01-27T05:24:10.721Z,997.86
2016-01-27T05:25:10.723Z,997.93
2016-01-27T05:26:10.728Z,997.9
2016-01-27T05:27:10.730Z,997.88
2016-01-27T05:28:10.733Z,997.93
2016-01-27T05:29:10.724Z,997.94
2016-01-27T05:30:10.728Z,997.92
2016-01-27T05:31:10.730Z,997.93
2016-01-27T05:32:10.732Z,997.93
2016-01-27T05:33:10.737Z,997.92
2016-01-27T05:34:10.739Z,997.98
2016-01-27T05:35:10.742Z,997.97
2016-01-27T05:36:10.744Z,997.96
2016-01-27T05:37:10.768Z,997.96
2016-01-27T05:38:10.740Z,997.98
2016-01-27T05:39:10.742Z,997.93
2016-01-27T05:40:10.747Z,997.95
2016-01-27T05:41:10.750Z,997.9
2016-01-27T05:42:10.738Z,997.93
2016-01-27T05:43:10.740Z,997.93
2016-01-27T05:44:10.746Z,997.92
2016-01-27T05:45:10.749Z,997.9
2016-01-27T05:46:10.751Z,997.96
2016-01-27T05:47:10.754Z,997.96
2016-01-27T05:48:10.743Z,997.96
2016-01-27T05:49:10.761Z,997.93
2016-01-27T05:50:10.757Z,997.87
2016-01-27T05:51:10.759Z,997.87
2016-01-27T05:52:10.763Z,997.85
2016-01-27T05:53:10.765Z,997.82
2016-01-27T05:54:10.768Z,997.84
2016-01-27T05:55:10.771Z,997.8
2016-01-27T05:56:10.773Z,997.81
2016-01-27T05:57:10.760Z,997.87
2016-01-27T05:58:10.762Z,997.88
2016-01-27T05:59:10.766Z,997.83
2016-01-27T06:00:10.768Z,997.85
2016-01-27T06:01:10.770Z,997.91
2016-01-27T06:02:10.773Z,997.92
2016-01-27T06:03:10.776Z,997.92
2016-01-27T06:04:10.781Z,997.88
2016-01-27T06:05:10.768Z,997.92
2016-01-27T06:06:10.773Z,997.93
2016-01-27T06:07:10.776Z,997.97
2016-01-27T06:08:10.779Z,997.92
2016-01-27T06:09:10.781Z,997.87
2016-01-27T06:10:10.784Z,997.88
2016-01-27T06:11:10.774Z,997.85
2016-01-27T06:12:10.776Z,997.81
2016-01-27T06:13:10.779Z,997.9
2016-01-27T06:14:10.797Z,997.84
2016-01-27T06:15:10.785Z,997.81
2016-01-27T06:16:10.788Z,997.85
2016-01-27T06:17:10.791Z,997.84
2016-01-27T06:18:10.794Z,997.82
2016-01-27T06:19:10.798Z,997.82
2016-01-27T06:20:10.800Z,997.78
2016-01-27T06:21:10.788Z,997.77
2016-01-27T06:22:10.793Z,997.72
2016-01-27T06:23:10.796Z,997.74
2016-01-27T06:24:10.798Z,997.7
2016-01-27T06:25:10.817Z,997.68
2016-01-27T06:26:10.821Z,997.7
2016-01-27T06:27:10.807Z,997.73
2016-01-27T06:28:10.811Z,997.69
2016-01-27T06:29:10.813Z,997.72
2016-01-27T06:30:10.818Z,997.64
2016-01-27T06:31:10.804Z,997.66
2016-01-27T06:32:10.808Z,997.64
2016-01-27T06:33:10.828Z,997.62
2016-01-27T06:34:10.814Z,997.68
2016-01-27T06:35:10.817Z,997.63
2016-01-27T06:36:10.819Z,997.64
2016-01-27T06:37:10.824Z,997.61
2016-01-27T06:38:10.826Z,997.66
2016-01-27T06:39:10.829Z,997.64
2016-01-27T06:40:10.832Z,997.64
2016-01-27T06:41:10.835Z,997.64
2016-01-27T06:42:10.838Z,997.6
2016-01-27T06:43:10.840Z,997.62
2016-01-27T06:44:10.834Z,997.58
2016-01-27T06:45:10.836Z,997.55
2016-01-27T06:46:10.838Z,997.52
2016-01-27T06:47:10.841Z,997.52
2016-01-27T06:48:10.847Z,997.54
2016-01-27T06:49:10.850Z,997.55
2016-01-27T06:50:10.852Z,997.59
2016-01-27T06:51:10.855Z,997.57
2016-01-27T06:52:10.858Z,997.58
2016-01-27T06:53:10.862Z,997.62
2016-01-27T06:54:10.866Z,997.63
2016-01-27T06:55:10.868Z,997.62
2016-01-27T06:56:10.871Z,997.69
2016-01-27T06:57:10.873Z,997.7
2016-01-27T06:58:10.875Z,997.67
2016-01-27T06:59:10.880Z,997.73
2016-01-27T07:00:10.882Z,997.73
2016-01-27T07:01:10.870Z,997.75
2016-01-27T07:02:10.888Z,997.75
2016-01-27T07:03:10.892Z,997.78
2016-01-27T07:04:10.880Z,997.84
2016-01-27T07:05:10.883Z,997.85
2016-01-27T07:06:10.886Z,997.85
2016-01-27T07:07:10.888Z,997.9
2016-01-27T07:08:10.906Z,997.93
2016-01-27T07:09:10.893Z,997.91
2016-01-27T07:10:10.899Z,997.92
2016-01-27T07:11:10.901Z,997.95
2016-01-27T07:12:10.903Z,997.97
2016-01-27T07:13:10.907Z,997.94
2016-01-27T07:14:10.913Z,998
2016-01-27T07:15:10.916Z,997.95
2016-01-27T07:16:10.919Z,997.97
2016-01-27T07:17:10.923Z,998.01
2016-01-27T07:18:10.926Z,998
2016-01-27T07:19:10.928Z,997.92
2016-01-27T07:20:10.931Z,997.94
2016-01-27T07:21:10.934Z,997.96
2016-01-27T07:22:10.935Z,998
2016-01-27T07:23:10.940Z,997.97
2016-01-27T07:24:10.943Z,998
2016-01-27T07:25:10.947Z,998.01
2016-01-27T07:26:10.949Z,997.99
2016-01-27T07:27:10.952Z,998.05
2016-01-27T07:28:10.955Z,998
2016-01-27T07:29:10.957Z,998.01
2016-01-27T07:30:10.960Z,997.98
2016-01-27T07:31:10.978Z,998
2016-01-27T07:32:10.966Z,998.01
2016-01-27T07:33:10.968Z,997.96
2016-01-27T07:34:10.972Z,997.95
2016-01-27T07:35:10.975Z,997.93
2016-01-27T07:36:10.962Z,997.95
2016-01-27T07:37:10.968Z,997.95
2016-01-27T07:38:10.970Z,997.98
2016-01-27T07:39:10.974Z,997.95
2016-01-27T07:40:10.976Z,997.96
2016-01-27T07:41:10.981Z,997.95
2016-01-27T07:42:10.984Z,997.95
2016-01-27T07:43:10.987Z,997.99
2016-01-27T07:44:10.990Z,998
2016-01-27T07:45:10.995Z,998.04
2016-01-27T07:46:10.998Z,998
2016-01-27T07:47:11.001Z,998.01
2016-01-27T07:48:11.005Z,997.98
2016-01-27T07:49:11.008Z,997.91
2016-01-27T07:50:11.026Z,997.87
2016-01-27T07:51:11.014Z,997.88
2016-01-27T07:52:11.017Z,997.91
2016-01-27T07:53:11.019Z,997.87
2016-01-27T07:54:11.024Z,997.88
2016-01-27T07:55:11.026Z,997.86
2016-01-27T07:56:11.032Z,997.89
2016-01-27T07:57:11.034Z,997.96
2016-01-27T07:58:11.038Z,997.93
2016-01-27T07:59:11.041Z,997.85
2016-01-27T08:00:11.044Z,997.87
2016-01-27T08:01:11.046Z,997.94
2016-01-27T08:02:11.049Z,997.91
2016-01-27T08:03:11.056Z,997.94
2016-01-27T08:04:11.058Z,997.97
2016-01-27T08:05:11.061Z,997.98
2016-01-27T08:06:11.064Z,997.88
2016-01-27T08:07:11.068Z,997.91
2016-01-27T08:08:11.070Z,997.88
2016-01-27T08:09:11.073Z,997.92
2016-01-27T08:10:11.077Z,997.95
2016-01-27T08:11:11.080Z,997.96
2016-01-27T08:12:11.099Z,997.88
2016-01-27T08:13:11.555Z,997.83
2016-01-27T08:14:11.092Z,997.87
2016-01-27T08:15:11.095Z,997.86
2016-01-27T08:16:11.097Z,997.87
2016-01-27T08:17:11.100Z,997.92
2016-01-27T08:18:11.103Z,997.94
2016-01-27T08:19:11.106Z,997.95
2016-01-27T08:20:11.109Z,997.97
2016-01-27T08:21:11.116Z,997.98
2016-01-27T08:22:11.118Z,997.91
2016-01-27T08:23:11.122Z,997.94
2016-01-27T08:24:11.125Z,997.95
2016-01-27T08:25:11.127Z,998.04
2016-01-27T08:26:11.130Z,997.99
2016-01-27T08:27:11.132Z,998.02
2016-01-27T08:28:11.136Z,998
2016-01-27T08:29:11.138Z,998.01
2016-01-27T08:30:11.140Z,998.02
2016-01-27T08:31:11.146Z,998.08
2016-01-27T08:32:11.152Z,998.01
2016-01-27T08:33:11.155Z,998
2016-01-27T08:34:11.157Z,997.99
2016-01-27T08:35:11.160Z,997.99
2016-01-27T08:36:11.163Z,997.97
2016-01-27T08:37:11.165Z,997.98
2016-01-27T08:38:11.184Z,997.93
2016-01-27T08:39:11.172Z,997.99
2016-01-27T08:40:11.194Z,997.95
2016-01-27T08:41:11.181Z,998.01
2016-01-27T08:42:11.183Z,997.99
2016-01-27T08:43:11.202Z,997.99
2016-01-27T08:44:11.205Z,998.05
2016-01-27T08:45:11.208Z,997.97
2016-01-27T08:46:11.210Z,997.98
2016-01-27T08:47:11.213Z,998
2016-01-27T08:48:11.216Z,998.02
2016-01-27T08:49:11.224Z,998.03
2016-01-27T08:50:11.227Z,998.02
2016-01-27T08:51:11.230Z,998.03
2016-01-27T08:52:11.233Z,998.01
2016-01-27T08:53:11.236Z,997.94
2016-01-27T08:54:11.239Z,997.97
2016-01-27T08:55:11.242Z,997.96
2016-01-27T08:56:11.249Z,997.96
2016-01-27T08:57:11.251Z,997.97
2016-01-27T08:58:11.254Z,997.91
2016-01-27T08:59:11.257Z,998
2016-01-27T09:00:11.260Z,998.01
2016-01-27T09:01:16.576Z,998.03
2016-01-27T09:02:11.281Z,997.98
2016-01-27T09:03:11.284Z,997.96
2016-01-27T09:04:11.274Z,998.04
2016-01-27T09:05:11.276Z,998.03
2016-01-27T09:06:11.279Z,997.99
2016-01-27T09:07:11.299Z,997.98
2016-01-27T09:08:11.286Z,997.95
2016-01-27T09:09:11.304Z,997.98
2016-01-27T09:10:11.603Z,997.94
2016-01-27T09:11:11.313Z,998
2016-01-27T09:12:11.316Z,997.91
2016-01-27T09:13:11.319Z,997.92
2016-01-27T09:14:11.321Z,997.92
2016-01-27T09:15:11.325Z,997.9
2016-01-27T09:16:11.327Z,997.9
2016-01-27T09:17:11.330Z,997.95
2016-01-27T09:18:11.335Z,997.94
2016-01-27T09:19:11.338Z,997.93
2016-01-27T09:20:11.346Z,997.96
2016-01-27T09:21:11.349Z,997.92
2016-01-27T09:22:11.353Z,997.9
2016-01-27T09:23:11.364Z,997.92
2016-01-27T09:24:11.368Z,997.93
2016-01-27T09:25:11.370Z,997.98
2016-01-27T09:26:11.376Z,997.94
2016-01-27T09:27:11.410Z,997.97
2016-01-27T09:28:11.397Z,997.97
2016-01-27T09:29:11.401Z,997.92
2016-01-27T09:30:11.404Z,997.93
2016-01-27T09:31:11.391Z,997.93
2016-01-27T09:32:11.393Z,997.94
2016-01-27T09:33:11.399Z,997.91
2016-01-27T09:34:11.402Z,997.9
2016-01-27T09:35:11.419Z,997.92
2016-01-27T09:36:11.422Z,997.9
2016-01-27T09:37:11.425Z,997.91
2016-01-27T09:38:11.429Z,997.95
2016-01-27T09:39:11.431Z,997.91
2016-01-27T09:40:11.434Z,997.9
2016-01-27T09:41:11.452Z,997.89
2016-01-27T09:42:11.457Z,997.88
2016-01-27T09:43:11.460Z,997.9
2016-01-27T09:44:11.449Z,997.9
2016-01-27T09:45:11.469Z,997.9
2016-01-27T09:46:11.471Z,997.85
2016-01-27T09:47:11.474Z,997.92
2016-01-27T09:48:11.480Z,997.86
2016-01-27T09:49:11.483Z,997.85
2016-01-27T09:50:11.486Z,997.83
2016-01-27T09:51:11.489Z,997.81
2016-01-27T09:52:11.491Z,997.82
2016-01-27T09:53:11.494Z,997.84
2016-01-27T09:54:11.505Z,997.78
2016-01-27T09:55:11.511Z,997.8
2016-01-27T09:56:11.514Z,997.81
2016-01-27T09:57:11.517Z,997.83
2016-01-27T09:58:11.519Z,997.78
2016-01-27T09:59:11.553Z,997.72
2016-01-27T10:00:11.539Z,997.75
2016-01-27T10:01:11.561Z,997.78
2016-01-27T10:02:11.547Z,997.76
2016-01-27T10:03:11.549Z,997.72
2016-01-27T10:04:11.553Z,997.7
2016-01-27T10:05:11.556Z,997.69
2016-01-27T10:06:11.575Z,997.7
2016-01-27T10:07:11.561Z,997.7
2016-01-27T10:08:11.569Z,997.73
2016-01-27T10:09:11.587Z,997.72
2016-01-27T10:10:11.591Z,997.75
2016-01-27T10:11:11.593Z,997.68
2016-01-27T10:12:11.597Z,997.69
2016-01-27T10:13:11.600Z,997.75
2016-01-27T10:14:11.602Z,997.75
2016-01-27T10:15:11.605Z,997.74
2016-01-27T10:16:11.624Z,997.74
2016-01-27T10:17:11.815Z,997.74
2016-01-27T10:18:11.629Z,997.77
2016-01-27T10:19:11.632Z,997.76
2016-01-27T10:20:11.635Z,997.77
2016-01-27T10:21:11.639Z,997.76
2016-01-27T10:22:11.657Z,997.75
2016-01-27T10:23:11.644Z,997.77
2016-01-27T10:24:11.663Z,997.76
2016-01-27T10:25:11.666Z,997.71
2016-01-27T10:26:11.671Z,997.71
2016-01-27T10:27:11.676Z,997.69
2016-01-27T10:28:11.679Z,997.7
2016-01-27T10:29:11.682Z,997.69
2016-01-27T10:30:11.701Z,997.65
2016-01-27T10:31:11.704Z,997.68
2016-01-27T10:32:11.707Z,997.67
2016-01-27T10:33:11.710Z,997.68
2016-01-27T10:34:11.715Z,997.68
2016-01-27T10:35:11.717Z,997.66
2016-01-27T10:36:11.721Z,997.66
2016-01-27T10:37:11.723Z,997.62
2016-01-27T10:38:11.729Z,997.65
2016-01-27T10:39:11.731Z,997.64
2016-01-27T10:40:11.734Z,997.6
2016-01-27T10:41:11.754Z,997.6
2016-01-27T10:42:11.771Z,997.57
2016-01-27T10:43:11.759Z,997.52
2016-01-27T10:44:11.762Z,997.52
2016-01-27T10:45:11.782Z,997.51
2016-01-27T10:46:11.784Z,997.47
2016-01-27T10:47:11.788Z,997.51
2016-01-27T10:48:11.790Z,997.5
2016-01-27T10:49:11.794Z,997.48
2016-01-27T10:50:11.796Z,997.43
2016-01-27T10:51:11.798Z,997.4
2016-01-27T10:52:11.818Z,997.37
2016-01-27T10:53:11.820Z,997.4
2016-01-27T10:54:11.824Z,997.4
2016-01-27T10:55:11.826Z,997.39
2016-01-27T10:56:11.831Z,997.37
2016-01-27T10:57:11.846Z,997.29
2016-01-27T10:58:11.848Z,997.24
2016-01-27T10:59:11.866Z,997.28
2016-01-27T11:00:11.870Z,997.25
2016-01-27T11:01:11.858Z,997.28
2016-01-27T11:02:11.860Z,997.3
2016-01-27T11:03:11.878Z,997.22
2016-01-27T11:04:11.882Z,997.29
2016-01-27T11:05:11.884Z,997.29
2016-01-27T11:06:11.887Z,997.28
2016-01-27T11:07:11.906Z,997.32
2016-01-27T11:08:11.908Z,997.31
2016-01-27T11:09:11.896Z,997.34
2016-01-27T11:10:11.915Z,997.37
2016-01-27T11:11:11.912Z,997.4
2016-01-27T11:12:11.904Z,997.34
2016-01-27T11:13:11.896Z,997.33
2016-01-27T11:14:11.903Z,997.31
2016-01-27T11:15:11.896Z,997.33
2016-01-27T11:16:11.895Z,997.31
2016-01-27T11:17:11.902Z,997.28
2016-01-27T11:18:11.901Z,997.34
2016-01-27T11:19:11.900Z,997.34
2016-01-27T11:20:11.899Z,997.4
2016-01-27T11:21:11.900Z,997.4
2016-01-27T11:22:11.901Z,997.35
2016-01-27T11:23:11.918Z,997.34
2016-01-27T11:24:11.922Z,997.28
2016-01-27T11:25:11.923Z,997.27
2016-01-27T11:26:11.934Z,997.3
2016-01-27T11:27:11.936Z,997.31
2016-01-27T11:28:11.940Z,997.36
2016-01-27T11:29:11.942Z,997.34
2016-01-27T11:30:11.960Z,997.34
2016-01-27T11:31:11.963Z,997.31
2016-01-27T11:32:11.966Z,997.27
2016-01-27T11:33:11.968Z,997.24
2016-01-27T11:34:11.986Z,997.27
2016-01-27T11:35:11.976Z,997.33
2016-01-27T11:36:11.979Z,997.28
2016-01-27T11:37:11.997Z,997.3
2016-01-27T11:38:11.999Z,997.29
2016-01-27T11:39:12.004Z,997.24
2016-01-27T11:40:12.006Z,997.27
2016-01-27T11:41:12.010Z,997.22
2016-01-27T11:42:12.031Z,997.25
2016-01-27T11:43:12.034Z,997.25
2016-01-27T11:44:12.037Z,997.19
2016-01-27T11:45:12.055Z,997.22
2016-01-27T11:46:12.044Z,997.24
2016-01-27T11:47:12.047Z,997.23
2016-01-27T11:48:12.065Z,997.22
2016-01-27T11:49:12.068Z,997.22
2016-01-27T11:50:12.087Z,997.17
2016-01-27T11:51:12.090Z,997.2
2016-01-27T11:52:12.093Z,997.21
2016-01-27T11:53:12.113Z,997.19
2016-01-27T11:54:12.099Z,997.16
2016-01-27T11:55:12.118Z,997.09
2016-01-27T11:56:12.099Z,997.12
2016-01-27T11:57:12.118Z,997.1
2016-01-27T11:58:12.121Z,997.14
2016-01-27T11:59:12.124Z,997.05
2016-01-27T12:00:12.142Z,997.03
2016-01-27T12:01:12.145Z,997.02
2016-01-27T12:02:12.147Z,996.95
2016-01-27T12:03:12.165Z,996.94
2016-01-27T12:04:12.168Z,996.89
2016-01-27T12:05:12.170Z,996.9
2016-01-27T12:06:12.173Z,996.87
2016-01-27T12:07:12.176Z,996.81
2016-01-27T12:08:12.179Z,996.82
2016-01-27T12:09:12.198Z,996.74
2016-01-27T12:10:12.201Z,996.71
2016-01-27T12:11:12.204Z,996.72
2016-01-27T12:12:12.207Z,996.73
2016-01-27T12:13:12.209Z,996.66
2016-01-27T12:14:12.213Z,996.61
2016-01-27T12:15:12.231Z,996.62
2016-01-27T12:16:12.234Z,996.62
2016-01-27T12:17:12.236Z,996.61
2016-01-27T12:18:12.239Z,996.59
2016-01-27T12:19:12.246Z,996.53
2016-01-27T12:20:12.265Z,996.56
2016-01-27T12:21:12.267Z,996.55
2016-01-27T12:22:12.270Z,996.51
2016-01-27T12:23:12.278Z,996.53
2016-01-27T12:24:12.280Z,996.47
2016-01-27T12:25:12.283Z,996.49
2016-01-27T12:26:12.285Z,996.47
2016-01-27T12:27:12.309Z,996.46
2016-01-27T12:28:12.312Z,996.46
2016-01-27T12:29:12.314Z,996.42
2016-01-27T12:30:12.316Z,996.43
2016-01-27T12:31:12.319Z,996.38
2016-01-27T12:32:12.327Z,996.41